Time;durP1;ratioP1;P1;durP2;ratioP2;P2;SDS_P1;SDS_P2;PMS_P1;PMS_P2;Temp;Humidity;BMP_temperature;BMP_pressure;BME280_temperature;BME280_humidity;BME280_pressure;Samples;Min_cycle;Max_cycle;Signal;HPM_P1;HPM_P2
2024/01/14 00:01:43;;;;;;;20.42;11.70;;;;;;;;;;10274463;28;20050;-49
2024/01/14 00:06:45;;;;;;;19.45;11.40;;;;;;;;;;10252384;28;20507;-49
2024/01/14 00:11:46;;;;;;;17.10;11.60;;;;;;;;;;10258431;28;20023;-47
2024/01/14 00:16:47;;;;;;;18.38;10.68;;;;;;;;;;10253070;28;20035;-48
2024/01/14 00:21:48;;;;;;;16.45;10.13;;;;;;;;;;10260173;28;20039;-49
2024/01/14 00:26:49;;;;;;;17.08;10.65;;;;;;;;;;10254988;28;20035;-52
2024/01/14 00:31:49;;;;;;;16.13;9.70;;;;;;;;;;10261298;28;20038;-51
2024/01/14 00:36:50;;;;;;;16.70;10.25;;;;;;;;;;10265430;28;20051;-50
2024/01/14 00:41:50;;;;;;;16.05;10.18;;;;;;;;;;10268090;28;20086;-52
2024/01/14 00:46:52;;;;;;;17.70;10.88;;;;;;;;;;10277654;28;20046;-52
2024/01/14 00:51:52;;;;;;;16.92;10.25;;;;;;;;;;10287420;28;20162;-50
2024/01/14 00:56:53;;;;;;;18.92;9.85;;;;;;;;;;10282648;28;20027;-50
2024/01/14 01:01:54;;;;;;;15.32;10.02;;;;;;;;;;10283499;28;20102;-55
2024/01/14 01:06:54;;;;;;;22.83;10.63;;;;;;;;;;10272587;28;20406;-52
2024/01/14 01:11:55;;;;;;;14.95;9.13;;;;;;;;;;10267443;28;20391;-53
2024/01/14 01:16:55;;;;;;;15.77;9.98;;;;;;;;;;10272797;28;20460;-51
2024/01/14 01:21:56;;;;;;;13.57;9.43;;;;;;;;;;10277829;28;20380;-50
2024/01/14 01:26:56;;;;;;;14.77;9.27;;;;;;;;;;10272568;28;20027;-49
2024/01/14 01:31:57;;;;;;;14.55;9.90;;;;;;;;;;10267747;28;20023;-48
2024/01/14 01:36:58;;;;;;;13.63;8.88;;;;;;;;;;10266782;28;20051;-48
2024/01/14 01:41:59;;;;;;;14.70;10.07;;;;;;;;;;10250347;28;20062;-51
2024/01/14 01:47:00;;;;;;;14.00;9.27;;;;;;;;;;10249304;28;20439;-49
2024/01/14 01:52:04;;;;;;;13.93;9.25;;;;;;;;;;10246290;28;20031;-47
2024/01/14 01:57:06;;;;;;;15.15;9.30;;;;;;;;;;10246802;28;20031;-47
2024/01/14 02:02:07;;;;;;;14.82;9.38;;;;;;;;;;10246275;28;20159;-49
2024/01/14 02:07:08;;;;;;;16.05;9.65;;;;;;;;;;10247369;28;20093;-48
2024/01/14 02:12:09;;;;;;;18.10;9.18;;;;;;;;;;10246615;28;20522;-48
2024/01/14 02:17:10;;;;;;;11.98;8.73;;;;;;;;;;10246352;28;20090;-50
2024/01/14 02:22:24;;;;;;;13.60;8.75;;;;;;;;;;10245933;28;20078;-52
2024/01/14 02:27:24;;;;;;;15.65;9.00;;;;;;;;;;10244308;28;20035;-50
2024/01/14 02:32:25;;;;;;;12.48;8.05;;;;;;;;;;10246310;28;20039;-52
2024/01/14 02:37:25;;;;;;;14.65;8.52;;;;;;;;;;10243449;28;20318;-48
2024/01/14 02:42:26;;;;;;;13.63;8.73;;;;;;;;;;10241666;28;20051;-51
2024/01/14 02:47:27;;;;;;;15.52;9.40;;;;;;;;;;10246155;28;20039;-49
2024/01/14 02:52:28;;;;;;;12.02;8.68;;;;;;;;;;10244834;28;20035;-52
2024/01/14 02:57:28;;;;;;;13.75;8.70;;;;;;;;;;10245457;28;20047;-51
2024/01/14 03:02:29;;;;;;;17.58;8.68;;;;;;;;;;10243927;28;20525;-49
2024/01/14 03:07:30;;;;;;;12.52;8.73;;;;;;;;;;10244561;28;20043;-51
2024/01/14 03:12:30;;;;;;;11.23;8.13;;;;;;;;;;10247852;28;20043;-52
2024/01/14 03:17:31;;;;;;;15.70;8.68;;;;;;;;;;10243837;28;20494;-51
2024/01/14 03:22:31;;;;;;;12.77;7.88;;;;;;;;;;10244894;28;20418;-53
2024/01/14 03:27:32;;;;;;;12.00;8.10;;;;;;;;;;10230985;28;20386;-52
2024/01/14 03:32:32;;;;;;;12.82;8.50;;;;;;;;;;10244837;28;20450;-49
2024/01/14 03:37:33;;;;;;;11.13;7.88;;;;;;;;;;10244941;28;20399;-51
2024/01/14 03:42:34;;;;;;;12.77;8.15;;;;;;;;;;10242472;28;20046;-50
2024/01/14 03:47:34;;;;;;;10.27;7.70;;;;;;;;;;10244465;28;20514;-50
2024/01/14 03:52:35;;;;;;;15.10;7.82;;;;;;;;;;10243914;28;20054;-53
2024/01/14 03:57:35;;;;;;;12.75;8.18;;;;;;;;;;10242152;28;20027;-53
2024/01/14 04:02:36;;;;;;;10.90;7.60;;;;;;;;;;10243239;28;20031;-53
2024/01/14 04:07:36;;;;;;;10.65;7.38;;;;;;;;;;10242649;28;20027;-50
2024/01/14 04:12:40;;;;;;;10.02;7.68;;;;;;;;;;10244085;28;20042;-52
2024/01/14 04:17:40;;;;;;;13.18;7.78;;;;;;;;;;10250163;28;20046;-50
2024/01/14 04:22:41;;;;;;;10.20;7.75;;;;;;;;;;10250414;28;20042;-51
2024/01/14 04:27:42;;;;;;;10.82;7.57;;;;;;;;;;10249651;28;20031;-51
2024/01/14 04:32:43;;;;;;;12.43;7.50;;;;;;;;;;10242795;28;20027;-52
2024/01/14 04:37:43;;;;;;;13.05;7.88;;;;;;;;;;10249253;28;20561;-47
2024/01/14 04:42:44;;;;;;;10.40;7.60;;;;;;;;;;10236424;28;20039;-47
2024/01/14 04:47:44;;;;;;;11.68;7.63;;;;;;;;;;10248202;28;20035;-50
2024/01/14 04:52:45;;;;;;;10.85;7.55;;;;;;;;;;10248106;28;20038;-49
2024/01/14 04:57:45;;;;;;;10.98;7.60;;;;;;;;;;10249085;28;20407;-51
2024/01/14 05:02:46;;;;;;;10.55;7.38;;;;;;;;;;10247616;28;20047;-51
2024/01/14 05:07:47;;;;;;;11.77;7.72;;;;;;;;;;10249142;28;20090;-50
2024/01/14 05:12:47;;;;;;;10.63;7.00;;;;;;;;;;10246503;28;20035;-48
2024/01/14 05:17:48;;;;;;;10.30;6.70;;;;;;;;;;10249002;28;20027;-50
2024/01/14 05:22:48;;;;;;;15.35;7.70;;;;;;;;;;10236338;28;20039;-50
2024/01/14 05:27:49;;;;;;;9.35;6.80;;;;;;;;;;10247546;28;20039;-53
2024/01/14 05:32:50;;;;;;;10.65;7.45;;;;;;;;;;10236267;28;20031;-52
2024/01/14 05:37:50;;;;;;;10.30;6.93;;;;;;;;;;10248978;28;20223;-51
2024/01/14 05:42:51;;;;;;;10.52;7.13;;;;;;;;;;10247927;28;20038;-52
2024/01/14 05:47:51;;;;;;;12.10;7.45;;;;;;;;;;10244977;28;20474;-51
2024/01/14 05:52:52;;;;;;;8.95;6.43;;;;;;;;;;10246336;28;20383;-52
2024/01/14 05:57:53;;;;;;;9.23;6.57;;;;;;;;;;10246810;28;20027;-51
2024/01/14 06:02:53;;;;;;;9.43;6.50;;;;;;;;;;10246911;28;20043;-49
2024/01/14 06:07:54;;;;;;;8.52;6.10;;;;;;;;;;10247378;28;20070;-52
2024/01/14 06:12:54;;;;;;;11.35;6.88;;;;;;;;;;10245322;28;20049;-50
2024/01/14 06:17:55;;;;;;;10.35;6.50;;;;;;;;;;10246657;28;20027;-52
2024/01/14 06:22:55;;;;;;;12.25;6.75;;;;;;;;;;10247076;28;20041;-47
2024/01/14 06:27:56;;;;;;;11.13;6.97;;;;;;;;;;10247274;28;20023;-47
2024/01/14 06:32:57;;;;;;;10.07;6.22;;;;;;;;;;10246991;28;20039;-52
2024/01/14 06:37:57;;;;;;;9.55;6.28;;;;;;;;;;10246023;28;20472;-51
2024/01/14 06:42:58;;;;;;;8.07;5.95;;;;;;;;;;10246311;28;20460;-52
2024/01/14 06:47:58;;;;;;;8.43;6.15;;;;;;;;;;10254328;28;20035;-49
2024/01/14 06:52:59;;;;;;;7.72;6.10;;;;;;;;;;10245400;28;20031;-47
2024/01/14 06:58:00;;;;;;;16.05;6.80;;;;;;;;;;10236603;28;20027;-52
2024/01/14 07:03:00;;;;;;;11.77;6.88;;;;;;;;;;10244326;28;20046;-53
2024/01/14 07:08:02;;;;;;;8.48;6.47;;;;;;;;;;10245142;28;20471;-49
2024/01/14 07:13:03;;;;;;;11.10;7.13;;;;;;;;;;10246471;28;20035;-51
2024/01/14 07:18:04;;;;;;;11.48;7.43;;;;;;;;;;10244758;28;20463;-50
2024/01/14 07:23:05;;;;;;;10.20;6.65;;;;;;;;;;10244568;28;20031;-50
2024/01/14 07:28:06;;;;;;;11.70;6.82;;;;;;;;;;10256402;28;20374;-50
2024/01/14 07:33:07;;;;;;;9.00;6.55;;;;;;;;;;10245298;28;20046;-50
2024/01/14 07:38:07;;;;;;;9.40;6.63;;;;;;;;;;10244037;28;20050;-49
2024/01/14 07:43:08;;;;;;;8.38;6.30;;;;;;;;;;10237431;28;20035;-49
2024/01/14 07:48:09;;;;;;;10.75;6.65;;;;;;;;;;10239275;28;20031;-50
2024/01/14 07:53:10;;;;;;;9.48;6.00;;;;;;;;;;10239578;28;20039;-53
2024/01/14 07:58:11;;;;;;;10.90;6.95;;;;;;;;;;10243359;28;20043;-48
2024/01/14 08:03:12;;;;;;;14.95;7.35;;;;;;;;;;10248775;28;20035;-50
2024/01/14 08:08:12;;;;;;;11.65;7.28;;;;;;;;;;10243112;28;20043;-50
2024/01/14 08:13:13;;;;;;;8.77;6.15;;;;;;;;;;10251168;28;20031;-47
2024/01/14 08:18:13;;;;;;;9.73;6.43;;;;;;;;;;10264283;28;20287;-48
2024/01/14 08:23:14;;;;;;;13.57;6.45;;;;;;;;;;10249142;28;20027;-49
2024/01/14 08:28:15;;;;;;;8.82;6.70;;;;;;;;;;10250054;28;20034;-50
2024/01/14 08:33:15;;;;;;;9.02;6.47;;;;;;;;;;10250067;28;20243;-53
2024/01/14 08:38:16;;;;;;;10.38;6.65;;;;;;;;;;10247455;28;20105;-53
2024/01/14 08:43:16;;;;;;;8.63;6.20;;;;;;;;;;10248212;28;20046;-52
2024/01/14 08:48:17;;;;;;;8.45;6.55;;;;;;;;;;10251700;28;20035;-48
2024/01/14 08:53:18;;;;;;;14.38;6.60;;;;;;;;;;10250276;28;20098;-52
2024/01/14 08:58:18;;;;;;;9.43;6.47;;;;;;;;;;10256686;28;20031;-53
2024/01/14 09:03:19;;;;;;;10.95;6.07;;;;;;;;;;10251795;28;20054;-52
2024/01/14 09:08:19;;;;;;;10.85;6.45;;;;;;;;;;10256641;28;20027;-55
2024/01/14 09:13:20;;;;;;;9.63;6.65;;;;;;;;;;10273056;28;20392;-58
2024/01/14 09:18:21;;;;;;;8.25;5.80;;;;;;;;;;10266598;28;20454;-49
2024/01/14 09:23:21;;;;;;;10.93;6.28;;;;;;;;;;10272757;28;20038;-53
2024/01/14 09:28:24;;;;;;;8.70;6.25;;;;;;;;;;10279341;28;20273;-53
2024/01/14 09:33:24;;;;;;;10.30;6.47;;;;;;;;;;10269671;28;20037;-54
2024/01/14 09:38:25;;;;;;;16.42;5.97;;;;;;;;;;10262620;28;20368;-55
2024/01/14 09:43:30;;;;;;;6.85;5.55;;;;;;;;;;10268799;28;20498;-52
2024/01/14 09:48:31;;;;;;;10.65;6.72;;;;;;;;;;10247453;28;20054;-52
2024/01/14 09:53:32;;;;;;;7.45;5.82;;;;;;;;;;10246594;28;20126;-54
2024/01/14 09:58:34;;;;;;;9.60;5.97;;;;;;;;;;10246156;28;20335;-58
2024/01/14 10:03:35;;;;;;;8.20;5.32;;;;;;;;;;10246202;28;20045;-55
2024/01/14 10:08:35;;;;;;;9.70;6.05;;;;;;;;;;10246753;28;20034;-51
2024/01/14 10:13:36;;;;;;;9.73;5.90;;;;;;;;;;10245937;28;20027;-53
2024/01/14 10:18:37;;;;;;;13.60;6.20;;;;;;;;;;10234611;28;20428;-53
2024/01/14 10:23:39;;;;;;;11.65;6.07;;;;;;;;;;10244287;28;20031;-51
2024/01/14 10:28:40;;;;;;;11.02;6.07;;;;;;;;;;10244722;28;20306;-56
2024/01/14 10:33:41;;;;;;;14.70;7.80;;;;;;;;;;10241279;28;20038;-52
2024/01/14 10:38:42;;;;;;;12.73;8.18;;;;;;;;;;10244195;28;20562;-50
2024/01/14 10:43:43;;;;;;;11.73;7.97;;;;;;;;;;10236686;28;20038;-51
2024/01/14 10:48:57;;;;;;;12.23;7.35;;;;;;;;;;10234640;28;20050;-48
2024/01/14 10:54:17;;;;;;;11.23;7.20;;;;;;;;;;10240054;28;20042;-52
2024/01/14 10:59:22;;;;;;;11.10;7.05;;;;;;;;;;10238795;28;20097;-53
2024/01/14 11:04:23;;;;;;;12.25;7.03;;;;;;;;;;10229607;28;20020;-52
2024/01/14 11:09:24;;;;;;;8.73;6.65;;;;;;;;;;10239293;28;20025;-52
2024/01/14 11:14:43;;;;;;;10.82;6.97;;;;;;;;;;10244796;28;20030;-49
2024/01/14 11:19:45;;;;;;;10.25;6.45;;;;;;;;;;10239420;28;20298;-48
2024/01/14 11:24:47;;;;;;;10.80;6.65;;;;;;;;;;10238465;28;20023;-53
2024/01/14 11:29:48;;;;;;;11.10;6.55;;;;;;;;;;10196081;28;20476;-52
2024/01/14 11:34:54;;;;;;;9.13;6.50;;;;;;;;;;10268339;28;20113;-51
2024/01/14 11:40:07;;;;;;;9.48;7.07;;;;;;;;;;10286664;23;20062;-59
2024/01/14 11:45:23;;;;;;;10.88;6.75;;;;;;;;;;10278708;28;20035;-61
2024/01/14 11:50:25;;;;;;;12.52;7.10;;;;;;;;;;10240572;28;20031;-61
2024/01/14 11:55:30;;;;;;;10.80;6.70;;;;;;;;;;10242648;28;20039;-60
2024/01/14 12:00:31;;;;;;;10.73;7.47;;;;;;;;;;10240333;28;20126;-61
2024/01/14 12:05:32;;;;;;;11.05;7.10;;;;;;;;;;10242913;29;20027;-61
2024/01/14 12:10:33;;;;;;;10.80;6.93;;;;;;;;;;10240865;28;20035;-62
2024/01/14 12:15:33;;;;;;;20.00;8.30;;;;;;;;;;10241303;28;20024;-61
2024/01/14 12:20:34;;;;;;;11.63;7.55;;;;;;;;;;10241719;28;20039;-61
2024/01/14 12:25:35;;;;;;;10.95;7.65;;;;;;;;;;10241515;28;20028;-61
2024/01/14 12:30:36;;;;;;;10.90;7.03;;;;;;;;;;10235489;28;20106;-60
2024/01/14 12:35:38;;;;;;;9.40;6.85;;;;;;;;;;10235336;28;20035;-61
2024/01/14 12:40:39;;;;;;;11.50;7.97;;;;;;;;;;10250044;28;20047;-61
2024/01/14 12:45:51;;;;;;;10.93;7.85;;;;;;;;;;10249909;29;20023;-60
2024/01/14 12:50:59;;;;;;;10.23;7.88;;;;;;;;;;10249973;28;20384;-60
2024/01/14 12:56:11;;;;;;;10.63;7.20;;;;;;;;;;10252841;28;20027;-60
2024/01/14 13:01:11;;;;;;;12.43;7.85;;;;;;;;;;10259007;28;20046;-60
2024/01/14 13:06:12;;;;;;;10.10;7.50;;;;;;;;;;10254148;28;20027;-60
2024/01/14 13:11:13;;;;;;;12.07;7.72;;;;;;;;;;10249587;28;20031;-60
2024/01/14 13:16:13;;;;;;;10.52;7.22;;;;;;;;;;10256212;28;20034;-60
2024/01/14 13:21:14;;;;;;;11.00;7.00;;;;;;;;;;10246994;28;20086;-60
2024/01/14 13:26:14;;;;;;;10.77;7.32;;;;;;;;;;10248095;28;20032;-60
2024/01/14 13:31:15;;;;;;;11.32;7.68;;;;;;;;;;10246580;28;20019;-60
2024/01/14 13:36:16;;;;;;;13.82;8.20;;;;;;;;;;10253938;28;20345;-60
2024/01/14 13:41:16;;;;;;;8.95;7.10;;;;;;;;;;10241822;28;20058;-60
2024/01/14 13:46:17;;;;;;;12.27;8.48;;;;;;;;;;10244976;28;20031;-60
2024/01/14 13:51:19;;;;;;;10.85;7.55;;;;;;;;;;10245779;28;20398;-60
2024/01/14 13:56:20;;;;;;;13.45;7.60;;;;;;;;;;10236326;28;20110;-60
2024/01/14 14:01:21;;;;;;;10.27;7.45;;;;;;;;;;10255865;28;20058;-60
2024/01/14 14:06:22;;;;;;;13.35;8.18;;;;;;;;;;10237490;28;20023;-60
2024/01/14 14:11:22;;;;;;;11.63;7.63;;;;;;;;;;10253180;28;20041;-60
2024/01/14 14:16:23;;;;;;;9.02;7.28;;;;;;;;;;10253919;28;20023;-60
2024/01/14 14:21:24;;;;;;;9.80;7.10;;;;;;;;;;10246009;28;20046;-60
2024/01/14 14:26:27;;;;;;;10.80;7.47;;;;;;;;;;10250595;28;20043;-60
2024/01/14 14:31:31;;;;;;;10.45;7.80;;;;;;;;;;10255628;28;20094;-60
2024/01/14 14:36:31;;;;;;;13.80;8.48;;;;;;;;;;10245191;28;20051;-60
2024/01/14 14:41:32;;;;;;;12.10;7.30;;;;;;;;;;10253776;28;20031;-60
2024/01/14 14:46:32;;;;;;;13.63;8.10;;;;;;;;;;10240134;28;20566;-61
2024/01/14 14:51:33;;;;;;;10.27;7.68;;;;;;;;;;10263982;28;20026;-61
2024/01/14 14:56:34;;;;;;;9.35;7.45;;;;;;;;;;10235304;28;20031;-61
2024/01/14 15:01:34;;;;;;;13.60;7.25;;;;;;;;;;10245506;28;20042;-61
2024/01/14 15:06:37;;;;;;;10.65;6.93;;;;;;;;;;10247395;28;20031;-59
2024/01/14 15:11:37;;;;;;;10.43;7.32;;;;;;;;;;10243752;28;20035;-61
2024/01/14 15:16:42;;;;;;;9.00;6.57;;;;;;;;;;10250091;28;20030;-61
2024/01/14 15:21:43;;;;;;;15.07;6.90;;;;;;;;;;10236833;28;20122;-61
2024/01/14 15:26:44;;;;;;;8.43;6.55;;;;;;;;;;10254443;28;20073;-61
2024/01/14 15:31:46;;;;;;;9.80;6.95;;;;;;;;;;10236750;28;20479;-61
2024/01/14 15:36:47;;;;;;;10.25;7.13;;;;;;;;;;10240836;28;20075;-60
2024/01/14 15:41:48;;;;;;;9.43;6.63;;;;;;;;;;10230716;28;20059;-60
2024/01/14 15:46:48;;;;;;;11.57;6.90;;;;;;;;;;10233766;28;20050;-60
2024/01/14 15:51:49;;;;;;;9.88;7.13;;;;;;;;;;10240674;28;20065;-61
2024/01/14 15:56:50;;;;;;;10.25;6.95;;;;;;;;;;10247817;28;20034;-58
2024/01/14 16:01:50;;;;;;;13.15;6.55;;;;;;;;;;10247689;28;20042;-59
2024/01/14 16:06:51;;;;;;;12.65;7.10;;;;;;;;;;10228645;28;20027;-59
2024/01/14 16:11:51;;;;;;;10.60;6.80;;;;;;;;;;10225958;28;20023;-58
2024/01/14 16:16:52;;;;;;;19.08;8.20;;;;;;;;;;10250351;28;20035;-58
2024/01/14 16:21:54;;;;;;;13.77;7.95;;;;;;;;;;10255979;28;20055;-59
2024/01/14 16:26:54;;;;;;;16.00;7.93;;;;;;;;;;10245706;28;20256;-58
2024/01/14 16:31:55;;;;;;;17.23;7.68;;;;;;;;;;10252656;28;20028;-60
2024/01/14 16:36:55;;;;;;;19.42;8.77;;;;;;;;;;10248997;28;20519;-58
2024/01/14 16:41:57;;;;;;;13.80;8.02;;;;;;;;;;10233181;28;20032;-57
2024/01/14 16:46:57;;;;;;;14.82;8.25;;;;;;;;;;10238826;28;20031;-58
2024/01/14 16:51:58;;;;;;;15.30;7.82;;;;;;;;;;10248265;28;20073;-57
2024/01/14 16:56:58;;;;;;;13.45;8.05;;;;;;;;;;10249326;28;20039;-57
2024/01/14 17:01:59;;;;;;;13.27;7.10;;;;;;;;;;10250380;28;20027;-57
2024/01/14 17:07:00;;;;;;;16.38;9.23;;;;;;;;;;10249295;28;20024;-58
2024/01/14 17:12:01;;;;;;;20.13;8.25;;;;;;;;;;10240966;28;20090;-58
2024/01/14 17:17:01;;;;;;;25.20;10.68;;;;;;;;;;10249200;28;20397;-58
2024/01/14 17:22:02;;;;;;;21.05;9.52;;;;;;;;;;10247774;28;20620;-57
2024/01/14 17:27:04;;;;;;;12.45;7.25;;;;;;;;;;10248723;28;20030;-57
2024/01/14 17:32:05;;;;;;;18.50;8.93;;;;;;;;;;10248971;28;20082;-57
2024/01/14 17:37:06;;;;;;;13.77;8.25;;;;;;;;;;10248245;28;20534;-57
2024/01/14 17:42:07;;;;;;;14.38;7.68;;;;;;;;;;10248465;28;20050;-57
2024/01/14 17:47:08;;;;;;;27.83;8.38;;;;;;;;;;10248266;28;20038;-58
2024/01/14 17:52:08;;;;;;;22.60;7.55;;;;;;;;;;10248095;28;20031;-58
2024/01/14 17:57:09;;;;;;;18.95;7.55;;;;;;;;;;10248067;28;20027;-57
2024/01/14 18:02:09;;;;;;;18.30;8.30;;;;;;;;;;10248143;28;20062;-58
2024/01/14 18:07:10;;;;;;;13.25;7.47;;;;;;;;;;10247298;28;20097;-57
2024/01/14 18:12:11;;;;;;;8.68;6.60;;;;;;;;;;10240401;28;20027;-57
2024/01/14 18:17:12;;;;;;;13.82;7.35;;;;;;;;;;10246803;28;20387;-58
2024/01/14 18:22:12;;;;;;;11.40;7.25;;;;;;;;;;10240662;28;20043;-58
2024/01/14 18:27:13;;;;;;;14.93;8.20;;;;;;;;;;10244691;28;20066;-57
2024/01/14 18:32:14;;;;;;;17.40;8.95;;;;;;;;;;10249243;28;20027;-57
2024/01/14 18:37:14;;;;;;;14.52;7.93;;;;;;;;;;10246099;29;20039;-58
2024/01/14 18:42:15;;;;;;;12.35;8.50;;;;;;;;;;10246215;28;20043;-58
2024/01/14 18:47:16;;;;;;;29.70;9.93;;;;;;;;;;10245864;28;20027;-58
2024/01/14 18:52:16;;;;;;;16.50;10.20;;;;;;;;;;10245788;28;20042;-58
2024/01/14 18:57:17;;;;;;;20.05;9.52;;;;;;;;;;10245853;28;20490;-58
2024/01/14 19:02:18;;;;;;;22.15;9.73;;;;;;;;;;10244044;28;20479;-58
2024/01/14 19:07:18;;;;;;;15.63;10.30;;;;;;;;;;10245329;28;20475;-58
2024/01/14 19:12:19;;;;;;;16.42;9.27;;;;;;;;;;10245297;29;20024;-58
2024/01/14 19:17:20;;;;;;;15.27;9.77;;;;;;;;;;10245449;28;20166;-58
2024/01/14 19:22:20;;;;;;;23.60;10.85;;;;;;;;;;10245535;28;20042;-58
2024/01/14 19:27:21;;;;;;;17.15;9.73;;;;;;;;;;10244943;28;20050;-58
2024/01/14 19:32:22;;;;;;;18.05;10.95;;;;;;;;;;10244670;28;20031;-57
2024/01/14 19:37:23;;;;;;;13.80;10.32;;;;;;;;;;10243348;28;20051;-57
2024/01/14 19:42:23;;;;;;;21.15;11.88;;;;;;;;;;10235419;28;20086;-59
2024/01/14 19:47:24;;;;;;;15.80;9.70;;;;;;;;;;10244365;28;20027;-59
2024/01/14 19:52:24;;;;;;;18.20;11.07;;;;;;;;;;10244340;28;20031;-60
2024/01/14 19:57:25;;;;;;;18.02;10.52;;;;;;;;;;10244377;28;20084;-60
2024/01/14 20:02:26;;;;;;;16.65;10.98;;;;;;;;;;10244191;28;20051;-60
2024/01/14 20:07:26;;;;;;;18.10;11.10;;;;;;;;;;10244749;28;20034;-60
2024/01/14 20:12:27;;;;;;;18.58;11.68;;;;;;;;;;10243877;28;20027;-59
2024/01/14 20:17:27;;;;;;;19.15;12.20;;;;;;;;;;10244499;28;20027;-60
2024/01/14 20:22:28;;;;;;;18.98;11.63;;;;;;;;;;10243570;28;20027;-60
2024/01/14 20:27:28;;;;;;;19.13;11.65;;;;;;;;;;10243528;28;20054;-59
2024/01/14 20:32:30;;;;;;;20.83;11.77;;;;;;;;;;10244595;28;20053;-59
2024/01/14 20:37:30;;;;;;;17.48;11.75;;;;;;;;;;10242404;28;20058;-59
2024/01/14 20:42:31;;;;;;;18.00;11.93;;;;;;;;;;10244193;28;20035;-59
2024/01/14 20:47:32;;;;;;;16.90;11.52;;;;;;;;;;10242876;28;20042;-60
2024/01/14 20:52:33;;;;;;;20.58;11.52;;;;;;;;;;10243198;28;20431;-60
2024/01/14 20:57:33;;;;;;;20.98;12.98;;;;;;;;;;10247473;28;20039;-60
2024/01/14 21:02:34;;;;;;;19.50;12.68;;;;;;;;;;10217709;28;20039;-59
2024/01/14 21:07:35;;;;;;;19.08;12.35;;;;;;;;;;10247412;28;20035;-59
2024/01/14 21:12:35;;;;;;;19.63;12.38;;;;;;;;;;10247293;28;20074;-60
2024/01/14 21:17:36;;;;;;;19.88;11.88;;;;;;;;;;10247396;28;20082;-58
2024/01/14 21:22:36;;;;;;;17.17;11.82;;;;;;;;;;10248979;29;20055;-58
2024/01/14 21:27:37;;;;;;;19.58;12.13;;;;;;;;;;10247739;28;20514;-59
2024/01/14 21:32:38;;;;;;;16.38;11.48;;;;;;;;;;10249409;28;20038;-59
2024/01/14 21:37:38;;;;;;;17.83;11.90;;;;;;;;;;10248840;28;20043;-59
2024/01/14 21:42:39;;;;;;;15.52;10.52;;;;;;;;;;10248406;28;20031;-59
2024/01/14 21:47:39;;;;;;;16.30;10.20;;;;;;;;;;10248199;28;20499;-59
2024/01/14 21:52:40;;;;;;;16.73;11.43;;;;;;;;;;10242923;28;20038;-58
2024/01/14 21:57:40;;;;;;;15.85;10.57;;;;;;;;;;10247903;28;20023;-59
2024/01/14 22:02:41;;;;;;;19.00;11.07;;;;;;;;;;10239370;28;20035;-59
2024/01/14 22:07:42;;;;;;;15.48;10.75;;;;;;;;;;10251884;28;20037;-59
2024/01/14 22:12:42;;;;;;;14.05;10.82;;;;;;;;;;10246791;28;20031;-59
2024/01/14 22:17:43;;;;;;;15.65;11.65;;;;;;;;;;10240397;28;20043;-59
2024/01/14 22:22:44;;;;;;;17.05;12.23;;;;;;;;;;10244412;29;20035;-58
2024/01/14 22:27:46;;;;;;;17.60;11.88;;;;;;;;;;10243944;29;20051;-59
2024/01/14 22:32:46;;;;;;;19.92;13.18;;;;;;;;;;10245515;28;20031;-58
2024/01/14 22:37:47;;;;;;;17.10;12.45;;;;;;;;;;10242638;28;20047;-59
2024/01/14 22:42:47;;;;;;;19.25;12.45;;;;;;;;;;10234049;28;20518;-59
2024/01/14 22:47:48;;;;;;;18.13;11.80;;;;;;;;;;10255197;28;20427;-59
2024/01/14 22:52:49;;;;;;;16.92;12.20;;;;;;;;;;10242070;28;20401;-59
2024/01/14 22:57:50;;;;;;;19.92;13.15;;;;;;;;;;10245249;28;20065;-59
2024/01/14 23:02:52;;;;;;;22.02;14.13;;;;;;;;;;10242792;28;20039;-60
2024/01/14 23:07:52;;;;;;;21.70;13.63;;;;;;;;;;10240894;28;20475;-61
2024/01/14 23:12:53;;;;;;;22.25;13.73;;;;;;;;;;10245451;28;20034;-61
2024/01/14 23:17:54;;;;;;;18.13;13.52;;;;;;;;;;10244995;28;20030;-61
2024/01/14 23:22:54;;;;;;;19.23;13.90;;;;;;;;;;10244650;29;20035;-59
2024/01/14 23:27:56;;;;;;;20.08;14.20;;;;;;;;;;10231849;28;20103;-60
2024/01/14 23:32:57;;;;;;;19.55;13.48;;;;;;;;;;10242328;28;20031;-59
2024/01/14 23:37:57;;;;;;;24.38;13.95;;;;;;;;;;10240789;28;20531;-59
2024/01/14 23:42:58;;;;;;;20.77;13.60;;;;;;;;;;10241550;29;20051;-59
2024/01/14 23:47:59;;;;;;;21.48;13.98;;;;;;;;;;10241844;28;20085;-60
2024/01/14 23:53:00;;;;;;;23.15;14.07;;;;;;;;;;10239884;29;20036;-60
2024/01/14 23:58:00;;;;;;;17.65;12.65;;;;;;;;;;10242734;28;20042;-59
